createdAt,value
2019-02-23T00:01:00.727Z,96.93
2019-02-23T00:03:29.822Z,94.73
2019-02-23T00:05:58.759Z,98.83
2019-02-23T00:08:27.732Z,92.43
2019-02-23T00:10:56.738Z,88.90
2019-02-23T00:13:25.728Z,88.17
2019-02-23T00:15:54.865Z,92.53
2019-02-23T00:18:23.892Z,91.10
2019-02-23T00:20:52.868Z,86.37
2019-02-23T00:23:21.905Z,87.97
2019-02-23T00:25:50.869Z,86.27
2019-02-23T00:28:19.999Z,88.13
2019-02-23T00:30:49.083Z,96.00
2019-02-23T00:33:18.191Z,95.83
2019-02-23T00:35:47.123Z,94.27
2019-02-23T00:38:16.165Z,87.73
2019-02-23T00:40:45.235Z,95.03
2019-02-23T00:43:14.191Z,92.87
2019-02-23T00:45:43.217Z,80.97
2019-02-23T00:48:12.177Z,83.77
2019-02-23T00:50:41.242Z,89.07
2019-02-23T00:53:10.302Z,82.80
2019-02-23T00:55:39.405Z,96.33
2019-02-23T00:58:08.490Z,95.30
2019-02-23T01:00:37.579Z,92.00
2019-02-23T01:03:06.739Z,97.53
2019-02-23T01:05:35.704Z,96.37
2019-02-23T01:08:04.839Z,91.67
2019-02-23T01:10:33.801Z,91.07
2019-02-23T01:13:02.864Z,87.23
2019-02-23T01:15:31.927Z,92.23
2019-02-23T01:18:01.009Z,88.80
2019-02-23T01:20:30.103Z,91.60
2019-02-23T01:22:59.130Z,88.20
2019-02-23T01:25:28.204Z,88.03
2019-02-23T01:27:57.128Z,91.47
2019-02-23T01:30:26.241Z,94.93
2019-02-23T01:32:55.375Z,89.73
2019-02-23T01:35:24.563Z,93.23
2019-02-23T01:37:53.635Z,100.23
2019-02-23T01:40:22.675Z,95.40
2019-02-23T01:42:51.840Z,86.73
2019-02-23T01:45:20.949Z,89.13
2019-02-23T01:47:49.940Z,86.07
2019-02-23T01:50:18.995Z,90.43
2019-02-23T01:52:48.055Z,88.97
2019-02-23T01:55:17.087Z,92.33
2019-02-23T01:57:46.178Z,87.90
2019-02-23T02:00:16.339Z,91.53
2019-02-23T02:02:47.343Z,91.63
2019-02-23T02:05:16.360Z,94.83
2019-02-23T02:07:45.457Z,90.80
2019-02-23T02:10:15.335Z,85.67
2019-02-23T02:12:44.312Z,98.40
2019-02-23T02:15:14.506Z,103.23
2019-02-23T02:17:43.550Z,99.17
2019-02-23T02:20:12.628Z,110.43
2019-02-23T02:22:41.703Z,111.93
2019-02-23T02:25:10.741Z,115.93
2019-02-23T02:27:39.739Z,110.77
2019-02-23T02:30:10.144Z,107.73
2019-02-23T02:32:39.214Z,111.07
2019-02-23T02:35:09.264Z,118.67
2019-02-23T02:37:38.375Z,119.53
2019-02-23T02:40:08.435Z,120.47
2019-02-23T02:42:37.532Z,106.47
2019-02-23T02:45:08.237Z,107.80
2019-02-23T02:47:37.287Z,110.27
2019-02-23T02:50:08.090Z,104.93
2019-02-23T02:52:37.171Z,105.83
2019-02-23T02:55:07.168Z,106.73
2019-02-23T02:57:36.221Z,109.73
2019-02-23T03:00:06.404Z,108.97
2019-02-23T03:02:35.340Z,97.23
2019-02-23T03:05:04.600Z,106.20
2019-02-23T03:07:33.675Z,108.93
2019-02-23T03:10:02.697Z,110.80
2019-02-23T03:12:31.616Z,113.03
2019-02-23T03:15:00.659Z,110.03
2019-02-23T03:17:29.652Z,98.47
2019-02-23T03:19:58.643Z,98.53
2019-02-23T03:22:27.807Z,93.27
2019-02-23T03:24:56.936Z,91.90
2019-02-23T03:27:26.019Z,94.93
2019-02-23T03:29:55.003Z,95.93
2019-02-23T03:32:24.081Z,88.63
2019-02-23T03:34:53.071Z,97.83
2019-02-23T03:37:22.123Z,96.53
2019-02-23T03:39:51.129Z,92.20
2019-02-23T03:42:20.141Z,100.10
2019-02-23T03:44:49.099Z,96.17
2019-02-23T03:47:18.164Z,104.60
2019-02-23T03:49:47.245Z,95.73
2019-02-23T03:52:16.339Z,110.83
2019-02-23T03:54:45.420Z,99.27
2019-02-23T03:57:14.339Z,95.57
2019-02-23T03:59:43.352Z,101.33
2019-02-23T04:02:12.442Z,89.13
2019-02-23T04:04:41.523Z,93.90
2019-02-23T04:07:10.571Z,99.27
2019-02-23T04:09:39.669Z,89.87
2019-02-23T04:12:08.743Z,97.67
2019-02-23T04:14:37.783Z,90.87
2019-02-23T04:17:06.836Z,90.63
2019-02-23T04:19:35.857Z,98.07
2019-02-23T04:22:04.890Z,95.80
2019-02-23T04:24:33.905Z,99.27
2019-02-23T04:27:02.803Z,95.93
2019-02-23T04:29:31.865Z,97.63
2019-02-23T04:32:01.013Z,89.73
2019-02-23T04:34:30.083Z,103.13
2019-02-23T04:36:59.146Z,102.17
2019-02-23T04:39:28.125Z,106.50
2019-02-23T04:41:57.108Z,111.67
2019-02-23T04:44:25.994Z,97.63
2019-02-23T04:46:55.133Z,88.57
2019-02-23T04:49:26.021Z,110.17
2019-02-23T04:51:55.069Z,100.80
2019-02-23T04:54:24.215Z,99.70
2019-02-23T04:56:53.307Z,103.17
2019-02-23T04:59:22.389Z,104.47
2019-02-23T05:01:51.416Z,107.70
2019-02-23T05:04:20.407Z,113.50
2019-02-23T05:06:49.435Z,104.93
2019-02-23T05:09:18.531Z,114.27
2019-02-23T05:11:47.731Z,112.20
2019-02-23T05:14:16.815Z,110.67
2019-02-23T05:16:45.775Z,105.47
2019-02-23T05:19:14.860Z,109.37
2019-02-23T05:21:43.939Z,112.87
2019-02-23T05:24:13.050Z,108.70
2019-02-23T05:26:42.161Z,104.37
2019-02-23T05:29:11.276Z,116.73
2019-02-23T05:31:40.359Z,100.77
2019-02-23T05:34:09.424Z,84.07
2019-02-23T05:36:38.538Z,76.23
2019-02-23T05:39:07.799Z,80.23
2019-02-23T05:41:36.714Z,80.50
2019-02-23T05:44:05.754Z,74.73
2019-02-23T05:46:34.677Z,90.10
2019-02-23T05:49:03.763Z,83.87
2019-02-23T05:51:38.704Z,90.57
2019-02-23T05:54:03.619Z,90.47
2019-02-23T05:56:32.619Z,86.83
2019-02-23T05:59:01.701Z,99.57
2019-02-23T06:01:30.778Z,90.03
2019-02-23T06:03:59.748Z,98.53
2019-02-23T06:06:28.863Z,92.97
2019-02-23T06:08:57.792Z,91.83
2019-02-23T06:11:26.863Z,91.83
2019-02-23T06:13:55.817Z,86.67
2019-02-23T06:16:24.884Z,92.03
2019-02-23T06:18:53.755Z,91.93
2019-02-23T06:21:22.867Z,82.40
2019-02-23T06:23:51.846Z,80.70
2019-02-23T06:26:21.083Z,86.30
2019-02-23T06:28:50.140Z,91.67
2019-02-23T06:31:19.171Z,91.43
2019-02-23T06:33:48.122Z,99.43
2019-02-23T06:36:17.151Z,94.33
2019-02-23T06:38:46.242Z,104.73
2019-02-23T06:41:15.223Z,91.80
2019-02-23T06:43:44.215Z,91.93
2019-02-23T06:46:13.167Z,91.37
2019-02-23T06:48:42.178Z,101.87
2019-02-23T06:51:11.234Z,95.63
2019-02-23T06:53:40.345Z,99.30
2019-02-23T06:56:09.429Z,100.37
2019-02-23T06:58:38.521Z,94.77
2019-02-23T07:01:07.556Z,92.07
2019-02-23T07:03:37.135Z,103.80
2019-02-23T07:06:06.214Z,93.37
2019-02-23T07:08:35.192Z,88.63
2019-02-23T07:11:04.253Z,100.67
2019-02-23T07:13:33.144Z,102.20
2019-02-23T07:16:02.278Z,97.53
2019-02-23T07:18:31.340Z,98.77
2019-02-23T07:21:00.346Z,88.20
2019-02-23T07:23:29.438Z,89.07
2019-02-23T07:25:58.519Z,87.83
2019-02-23T07:28:27.530Z,94.40
2019-02-23T07:30:56.621Z,94.10
2019-02-23T07:33:32.685Z,84.37
2019-02-23T07:35:56.392Z,89.60
2019-02-23T07:38:25.393Z,91.23
2019-02-23T07:40:54.391Z,95.73
2019-02-23T07:43:23.466Z,86.40
2019-02-23T07:45:52.515Z,90.43
2019-02-23T07:48:21.531Z,86.73
2019-02-23T07:50:52.588Z,94.00
2019-02-23T07:53:21.298Z,92.20
2019-02-23T07:55:50.395Z,92.33
2019-02-23T07:58:19.489Z,86.50
2019-02-23T08:00:48.585Z,90.37
2019-02-23T08:03:17.578Z,86.03
2019-02-23T08:05:46.739Z,90.60
2019-02-23T08:08:15.811Z,84.10
2019-02-23T08:10:44.879Z,87.20
2019-02-23T08:13:13.951Z,86.17
2019-02-23T08:15:43.009Z,78.13
2019-02-23T08:18:12.030Z,78.23
2019-02-23T08:20:41.079Z,82.93
2019-02-23T08:23:10.102Z,81.20
2019-02-23T08:25:39.080Z,84.97
2019-02-23T08:28:08.192Z,81.67
2019-02-23T08:30:37.312Z,85.33
2019-02-23T08:33:06.313Z,79.50
2019-02-23T08:35:35.356Z,60.20
2019-02-23T08:38:04.468Z,58.37
2019-02-23T08:40:33.575Z,54.03
2019-02-23T08:43:02.588Z,54.70
2019-02-23T08:45:31.682Z,49.20
2019-02-23T08:48:00.715Z,48.30
2019-02-23T08:50:29.851Z,47.10
2019-02-23T08:52:58.875Z,44.63
2019-02-23T08:55:28.007Z,42.77
2019-02-23T08:57:57.084Z,40.67
2019-02-23T09:00:26.151Z,40.87
2019-02-23T09:02:55.232Z,40.10
2019-02-23T09:05:24.324Z,40.87
2019-02-23T09:07:53.383Z,38.97
2019-02-23T09:10:22.450Z,34.17
2019-02-23T09:12:51.366Z,39.00
2019-02-23T09:15:22.281Z,39.40
2019-02-23T09:17:51.090Z,36.23
2019-02-23T09:20:28.529Z,34.57
2019-02-23T09:22:59.780Z,34.40
2019-02-23T09:25:21.843Z,34.83
2019-02-23T09:27:50.900Z,34.97
2019-02-23T09:30:20.100Z,34.03
2019-02-23T09:32:49.195Z,32.00
2019-02-23T09:35:18.266Z,34.17
2019-02-23T09:37:47.342Z,32.60
2019-02-23T09:40:16.459Z,30.83
2019-02-23T09:42:45.555Z,32.87
2019-02-23T09:45:14.577Z,34.40
2019-02-23T09:47:43.588Z,28.23
2019-02-23T09:50:12.634Z,31.27
2019-02-23T09:52:41.611Z,32.20
2019-02-23T09:55:10.702Z,31.77
2019-02-23T09:57:39.863Z,33.93
2019-02-23T10:00:09.596Z,30.00
2019-02-23T10:02:38.653Z,32.20
2019-02-23T10:05:07.792Z,33.30
2019-02-23T10:07:36.957Z,33.63
2019-02-23T10:10:06.508Z,34.73
2019-02-23T10:12:35.561Z,32.67
2019-02-23T10:15:04.703Z,31.17
2019-02-23T10:17:33.752Z,30.90
2019-02-23T10:20:02.780Z,32.90
2019-02-23T10:22:31.666Z,30.43
2019-02-23T10:25:00.753Z,33.10
2019-02-23T10:27:29.714Z,30.17
2019-02-23T10:29:58.763Z,29.90
2019-02-23T10:32:27.674Z,28.40
2019-02-23T10:34:56.749Z,25.73
2019-02-23T10:37:25.874Z,24.60
2019-02-23T10:39:54.878Z,29.70
2019-02-23T10:42:23.928Z,22.87
2019-02-23T10:44:52.947Z,21.80
2019-02-23T10:47:21.851Z,21.73
2019-02-23T10:49:50.827Z,19.17
2019-02-23T10:52:19.920Z,20.00
2019-02-23T10:54:49.003Z,19.57
2019-02-23T10:57:18.039Z,20.43
2019-02-23T10:59:47.117Z,21.97
2019-02-23T11:02:16.151Z,21.20
2019-02-23T11:04:45.242Z,19.77
2019-02-23T11:07:14.314Z,19.53
2019-02-23T11:09:43.504Z,20.30
2019-02-23T11:12:12.635Z,20.57
2019-02-23T11:14:41.618Z,19.40
2019-02-23T11:17:10.701Z,19.37
2019-02-23T11:19:39.801Z,18.20
2019-02-23T11:22:08.913Z,19.97
2019-02-23T11:24:37.919Z,22.33
2019-02-23T11:27:07.016Z,19.83
2019-02-23T11:29:36.022Z,18.93
2019-02-23T11:32:05.124Z,19.47
2019-02-23T11:34:34.122Z,19.87
2019-02-23T11:37:03.179Z,18.87
2019-02-23T11:39:32.144Z,17.97
2019-02-23T11:42:01.230Z,17.70
2019-02-23T11:44:30.246Z,19.70
2019-02-23T11:47:00.160Z,18.83
2019-02-23T11:49:29.528Z,18.33
2019-02-23T11:51:58.527Z,19.63
2019-02-23T11:54:27.489Z,19.03
2019-02-23T11:56:56.508Z,20.70
2019-02-23T11:59:25.627Z,21.67
2019-02-23T12:01:54.679Z,21.13
2019-02-23T12:04:23.751Z,20.77
2019-02-23T12:06:52.755Z,20.70
2019-02-23T12:09:21.706Z,18.70
2019-02-23T12:11:50.679Z,19.87
2019-02-23T12:14:19.692Z,19.87
2019-02-23T12:16:48.767Z,19.30
2019-02-23T12:19:17.796Z,19.07
2019-02-23T12:21:46.939Z,19.57
2019-02-23T12:24:15.987Z,19.97
2019-02-23T12:26:44.957Z,19.93
2019-02-23T12:29:14.052Z,20.03
2019-02-23T12:31:43.121Z,21.30
2019-02-23T12:34:12.192Z,19.60
2019-02-23T12:36:41.231Z,21.00
2019-02-23T12:39:10.287Z,21.50
2019-02-23T12:41:39.378Z,19.93
2019-02-23T12:44:08.584Z,20.97
2019-02-23T12:46:37.611Z,16.43
2019-02-23T12:49:06.619Z,16.13
2019-02-23T12:51:35.653Z,14.40
2019-02-23T12:54:04.837Z,14.97
2019-02-23T12:56:33.891Z,14.80
2019-02-23T12:59:02.876Z,16.43
2019-02-23T13:01:31.852Z,16.10
2019-02-23T13:04:00.859Z,16.40
2019-02-23T13:06:29.819Z,15.20
2019-02-23T13:09:21.859Z,16.17
2019-02-23T13:12:27.829Z,16.10
2019-02-23T13:15:20.670Z,16.13
2019-02-23T13:18:21.958Z,16.03
2019-02-23T13:21:20.370Z,16.73
2019-02-23T13:24:13.895Z,15.90
2019-02-23T13:27:12.538Z,15.33
2019-02-23T13:30:10.815Z,16.37
2019-02-23T13:33:07.074Z,15.17
2019-02-23T13:36:32.607Z,14.93
2019-02-23T13:39:52.127Z,15.70
2019-02-23T13:42:44.967Z,14.17
2019-02-23T13:45:37.376Z,12.80
2019-02-23T13:48:33.267Z,13.77
2019-02-23T13:51:13.794Z,13.13
2019-02-23T13:54:20.403Z,13.47
2019-02-23T13:57:12.884Z,14.63
2019-02-23T14:00:14.725Z,14.67
2019-02-23T14:03:00.351Z,14.80
2019-02-23T14:06:31.895Z,13.00
2019-02-23T14:10:00.330Z,14.37
2019-02-23T14:13:24.044Z,14.60
2019-02-23T14:16:33.467Z,12.57
2019-02-23T14:19:32.511Z,14.87
2019-02-23T14:22:09.731Z,14.50
2019-02-23T14:25:23.256Z,13.67
2019-02-23T14:28:42.759Z,13.20
2019-02-23T14:31:52.031Z,14.43
2019-02-23T14:34:52.891Z,13.87
2019-02-23T14:37:58.527Z,14.23
2019-02-23T14:41:06.489Z,14.47
2019-02-23T14:44:05.333Z,14.20
2019-02-23T14:47:21.014Z,13.63
2019-02-23T14:50:13.030Z,13.50
2019-02-23T14:53:26.273Z,14.53
2019-02-23T14:56:54.547Z,14.23
2019-02-23T14:59:55.724Z,15.17
2019-02-23T15:03:08.410Z,13.77
2019-02-23T15:05:59.360Z,15.40
2019-02-23T15:09:30.588Z,15.10
2019-02-23T15:12:43.118Z,14.80
2019-02-23T15:16:16.602Z,15.83
2019-02-23T15:19:26.667Z,19.63
2019-02-23T15:22:32.531Z,19.17
2019-02-23T15:25:35.452Z,20.50
2019-02-23T15:28:30.235Z,19.63
2019-02-23T15:30:54.944Z,20.97
2019-02-23T15:34:07.243Z,19.47
2019-02-23T15:37:06.979Z,20.60
2019-02-23T15:40:03.255Z,19.70
2019-02-23T15:43:13.922Z,19.67
2019-02-23T15:46:13.859Z,20.57
2019-02-23T15:49:20.794Z,20.80
2019-02-23T15:51:49.821Z,20.70
2019-02-23T15:54:18.942Z,21.37
2019-02-23T15:56:48.153Z,20.10
2019-02-23T15:59:17.239Z,21.33
2019-02-23T16:01:46.327Z,20.13
2019-02-23T16:04:15.341Z,20.10
2019-02-23T16:06:44.504Z,19.80
2019-02-23T16:09:13.574Z,21.37
2019-02-23T16:11:45.106Z,20.37
2019-02-23T16:14:13.404Z,20.97
2019-02-23T16:16:42.359Z,20.73
2019-02-23T16:19:11.436Z,20.70
2019-02-23T16:21:40.395Z,21.27
2019-02-23T16:24:09.469Z,20.70
2019-02-23T16:26:38.541Z,21.87
2019-02-23T16:29:07.610Z,21.07
2019-02-23T16:31:36.674Z,20.57
2019-02-23T16:34:07.373Z,20.00
2019-02-23T16:36:36.432Z,19.93
2019-02-23T16:39:10.539Z,20.83
2019-02-23T16:41:39.789Z,20.30
2019-02-23T16:44:09.112Z,20.27
2019-02-23T16:46:38.129Z,21.07
2019-02-23T16:49:07.232Z,21.93
2019-02-23T16:51:36.323Z,21.37
2019-02-23T16:54:05.455Z,22.90
2019-02-23T16:56:34.359Z,23.63
2019-02-23T16:59:03.436Z,24.13
2019-02-23T17:01:32.495Z,24.87
2019-02-23T17:04:01.507Z,25.07
2019-02-23T17:06:32.851Z,23.90
2019-02-23T17:09:01.208Z,24.33
2019-02-23T17:11:30.175Z,24.13
2019-02-23T17:13:59.250Z,24.87
2019-02-23T17:16:28.250Z,24.87
2019-02-23T17:18:57.338Z,25.47
2019-02-23T17:21:26.584Z,24.00
2019-02-23T17:23:55.571Z,25.43
2019-02-23T17:26:24.487Z,26.20
2019-02-23T17:28:53.631Z,25.00
2019-02-23T17:31:22.717Z,25.13
2019-02-23T17:33:51.742Z,26.50
2019-02-23T17:36:21.217Z,26.80
2019-02-23T17:38:50.285Z,24.53
2019-02-23T17:41:19.387Z,24.30
2019-02-23T17:43:48.369Z,23.57
2019-02-23T17:46:17.436Z,26.60
2019-02-23T17:48:46.427Z,24.87
2019-02-23T17:51:15.659Z,24.90
2019-02-23T17:53:44.754Z,30.13
2019-02-23T17:56:14.649Z,25.13
2019-02-23T17:58:43.953Z,24.43
2019-02-23T18:01:13.080Z,25.07
2019-02-23T18:03:42.236Z,24.20
2019-02-23T18:06:11.275Z,25.57
2019-02-23T18:08:40.348Z,25.00
2019-02-23T18:11:09.460Z,25.20
2019-02-23T18:13:38.456Z,26.37
2019-02-23T18:16:07.539Z,25.90
2019-02-23T18:18:36.618Z,23.67
2019-02-23T18:21:05.705Z,26.87
2019-02-23T18:23:34.640Z,25.47
2019-02-23T18:26:03.657Z,26.27
2019-02-23T18:28:32.699Z,27.47
2019-02-23T18:31:01.815Z,41.33
2019-02-23T18:33:30.884Z,46.67
2019-02-23T18:35:59.948Z,37.73
2019-02-23T18:38:28.946Z,30.50
2019-02-23T18:40:58.023Z,28.67
2019-02-23T18:43:27.079Z,26.83
2019-02-23T18:45:56.134Z,24.90
2019-02-23T18:48:25.196Z,22.67
2019-02-23T18:50:54.215Z,25.60
2019-02-23T18:53:23.187Z,24.10
2019-02-23T18:55:52.109Z,26.07
2019-02-23T18:58:21.121Z,24.97
2019-02-23T19:00:50.231Z,25.90
2019-02-23T19:03:19.264Z,26.93
2019-02-23T19:05:50.085Z,23.77
2019-02-23T19:08:18.958Z,28.57
2019-02-23T19:10:48.020Z,26.60
2019-02-23T19:13:17.143Z,26.47
2019-02-23T19:15:46.227Z,26.23
2019-02-23T19:18:15.265Z,27.60
2019-02-23T19:20:44.387Z,26.63
2019-02-23T19:23:13.408Z,25.70
2019-02-23T19:25:42.431Z,27.17
2019-02-23T19:28:11.551Z,23.50
2019-02-23T19:30:40.603Z,26.27
2019-02-23T19:33:09.646Z,25.97
2019-02-23T19:35:38.698Z,25.77
2019-02-23T19:38:07.690Z,23.70
2019-02-23T19:40:36.764Z,22.93
2019-02-23T19:43:05.835Z,23.47
2019-02-23T19:45:35.010Z,23.40
2019-02-23T19:48:04.100Z,20.93
2019-02-23T19:50:39.894Z,21.80
2019-02-23T19:53:08.872Z,20.50
2019-02-23T19:55:37.959Z,20.57
2019-02-23T19:58:07.031Z,20.20
2019-02-23T20:00:36.047Z,21.00
2019-02-23T20:03:05.115Z,20.50
2019-02-23T20:05:34.231Z,20.20
2019-02-23T20:08:03.221Z,20.87
2019-02-23T20:10:32.280Z,20.43
2019-02-23T20:13:01.345Z,23.60
2019-02-23T20:15:30.405Z,17.87
2019-02-23T20:17:59.455Z,18.27
2019-02-23T20:20:28.454Z,19.97
2019-02-23T20:22:57.436Z,20.80
2019-02-23T20:25:26.433Z,20.40
2019-02-23T20:27:55.464Z,19.67
2019-02-23T20:30:24.443Z,22.07
2019-02-23T20:32:53.368Z,19.50
2019-02-23T20:35:22.374Z,18.87
2019-02-23T20:37:51.385Z,19.60
2019-02-23T20:40:20.519Z,19.93
2019-02-23T20:42:49.523Z,19.80
2019-02-23T20:45:18.614Z,19.27
2019-02-23T20:47:47.696Z,20.37
2019-02-23T20:50:16.847Z,22.20
2019-02-23T20:52:45.931Z,20.97
2019-02-23T20:55:15.075Z,22.97
2019-02-23T20:57:44.279Z,21.77
2019-02-23T21:00:13.451Z,19.80
2019-02-23T21:02:42.649Z,22.40
2019-02-23T21:05:11.881Z,21.40
2019-02-23T21:07:40.903Z,18.80
2019-02-23T21:10:10.164Z,20.77
2019-02-23T21:12:39.152Z,20.90
2019-02-23T21:15:08.234Z,21.53
2019-02-23T21:17:37.307Z,20.60
2019-02-23T21:20:06.416Z,23.30
2019-02-23T21:22:35.420Z,20.00
2019-02-23T21:25:04.641Z,20.23
2019-02-23T21:27:33.712Z,21.23
2019-02-23T21:30:02.787Z,21.77
2019-02-23T21:32:31.809Z,23.47
2019-02-23T21:35:00.822Z,21.93
2019-02-23T21:37:29.835Z,22.07
2019-02-23T21:39:58.803Z,22.20
2019-02-23T21:42:27.800Z,22.23
2019-02-23T21:44:58.000Z,25.67
2019-02-23T21:47:27.135Z,22.10
2019-02-23T21:49:56.128Z,24.93
2019-02-23T21:52:25.219Z,21.27
2019-02-23T21:54:54.200Z,23.27
2019-02-23T21:57:23.200Z,22.77
2019-02-23T21:59:52.285Z,29.00
2019-02-23T22:02:40.492Z,27.63
2019-02-23T22:05:12.493Z,28.50
2019-02-23T22:07:40.331Z,24.27
2019-02-23T22:10:09.502Z,26.63
2019-02-23T22:12:38.582Z,25.73
2019-02-23T22:15:07.675Z,27.43
2019-02-23T22:17:36.818Z,23.53
2019-02-23T22:20:05.996Z,28.33
2019-02-23T22:22:35.136Z,26.87
2019-02-23T22:25:04.273Z,23.40
2019-02-23T22:27:33.435Z,25.03
2019-02-23T22:30:02.416Z,23.93
2019-02-23T22:32:31.501Z,25.27
2019-02-23T22:35:00.661Z,24.30
2019-02-23T22:37:29.772Z,27.47
2019-02-23T22:39:58.879Z,24.90
2019-02-23T22:42:27.971Z,22.60
2019-02-23T22:44:56.969Z,22.60
2019-02-23T22:47:25.983Z,25.03
2019-02-23T22:49:55.063Z,26.30
2019-02-23T22:52:24.143Z,22.50
2019-02-23T22:54:53.079Z,23.40
2019-02-23T22:57:22.115Z,23.43
2019-02-23T22:59:51.198Z,23.07
2019-02-23T23:02:20.258Z,22.27
2019-02-23T23:04:49.367Z,21.23
2019-02-23T23:07:18.513Z,20.97
2019-02-23T23:09:47.615Z,21.57
2019-02-23T23:12:16.688Z,19.80
2019-02-23T23:14:45.673Z,23.10
2019-02-23T23:17:14.728Z,21.03
2019-02-23T23:19:43.743Z,19.80
2019-02-23T23:22:12.740Z,20.43
2019-02-23T23:24:41.828Z,19.27
2019-02-23T23:27:10.818Z,19.83
2019-02-23T23:29:39.875Z,18.83
2019-02-23T23:32:08.887Z,16.70
2019-02-23T23:34:37.855Z,20.17
2019-02-23T23:37:06.910Z,19.23
2019-02-23T23:39:35.920Z,18.40
2019-02-23T23:42:04.980Z,18.97
2019-02-23T23:44:33.998Z,18.07
2019-02-23T23:47:03.107Z,22.33
2019-02-23T23:49:32.132Z,20.20
2019-02-23T23:52:01.226Z,18.03
2019-02-23T23:54:30.354Z,17.70
2019-02-23T23:56:59.326Z,17.00
2019-02-23T23:59:28.358Z,20.93
